createdAt,value
2018-11-10T00:00:20.145Z,33.10
2018-11-10T00:02:49.020Z,30.87
2018-11-10T00:05:17.632Z,30.60
2018-11-10T00:07:45.883Z,31.50
2018-11-10T00:10:13.787Z,30.43
2018-11-10T00:12:41.804Z,32.03
2018-11-10T00:15:10.728Z,32.03
2018-11-10T00:17:38.820Z,30.47
2018-11-10T00:20:06.744Z,32.80
2018-11-10T00:22:34.760Z,32.07
2018-11-10T00:25:02.896Z,32.70
2018-11-10T00:27:30.402Z,30.47
2018-11-10T00:29:58.527Z,29.60
2018-11-10T01:19:33.086Z,39.10
2018-11-10T01:22:01.057Z,38.27
2018-11-10T01:24:29.020Z,38.80
2018-11-10T01:26:59.325Z,39.67
2018-11-10T01:29:27.276Z,38.13
2018-11-10T01:31:55.284Z,37.50
2018-11-10T01:34:23.523Z,37.77
2018-11-10T01:36:51.493Z,37.17
2018-11-10T01:39:19.496Z,37.47
2018-11-10T01:41:47.776Z,38.13
2018-11-10T01:44:15.708Z,37.30
2018-11-10T01:46:43.636Z,38.10
2018-11-10T01:49:11.590Z,38.03
2018-11-10T01:51:39.503Z,38.87
2018-11-10T01:54:07.485Z,36.57
2018-11-10T01:56:35.402Z,39.27
2018-11-10T01:59:03.344Z,39.13
2018-11-10T02:01:31.289Z,38.20
2018-11-10T02:03:59.208Z,40.07
2018-11-10T02:06:27.176Z,36.00
2018-11-10T02:08:55.071Z,36.50
2018-11-10T02:11:23.002Z,33.00
2018-11-10T02:13:50.970Z,32.77
2018-11-10T02:16:18.885Z,31.37
2018-11-10T02:18:46.808Z,28.90
2018-11-10T02:21:14.725Z,27.53
2018-11-10T02:23:42.644Z,30.50
2018-11-10T02:26:10.568Z,29.87
2018-11-10T02:28:38.021Z,30.10
2018-11-10T02:31:06.041Z,31.17
2018-11-10T02:33:34.078Z,31.13
2018-11-10T02:36:02.078Z,32.63
2018-11-10T02:38:30.039Z,31.97
2018-11-10T02:40:57.987Z,31.57
2018-11-10T02:43:25.955Z,31.70
2018-11-10T02:45:54.030Z,32.50
2018-11-10T02:48:22.100Z,32.10
2018-11-10T02:50:50.100Z,33.97
2018-11-10T02:53:18.141Z,31.70
2018-11-10T02:55:46.096Z,35.73
2018-11-10T02:58:14.084Z,31.80
2018-11-10T03:00:41.985Z,34.90
2018-11-10T03:03:09.900Z,36.63
2018-11-10T03:05:37.820Z,33.20
2018-11-10T03:08:05.744Z,36.57
2018-11-10T03:10:33.809Z,35.50
2018-11-10T03:13:01.676Z,37.27
2018-11-10T03:15:29.766Z,34.63
2018-11-10T03:17:57.668Z,35.43
2018-11-10T03:20:25.616Z,33.67
2018-11-10T03:22:53.524Z,35.07
2018-11-10T03:25:21.542Z,32.23
2018-11-10T03:27:50.184Z,32.97
2018-11-10T03:30:18.100Z,33.53
2018-11-10T03:32:46.109Z,32.00
2018-11-10T03:35:14.076Z,30.77
2018-11-10T03:37:42.016Z,32.23
2018-11-10T03:40:10.752Z,29.70
2018-11-10T03:42:39.432Z,28.70
2018-11-10T03:45:08.132Z,32.30
2018-11-10T03:47:36.139Z,29.33
2018-11-10T03:50:04.341Z,31.10
2018-11-10T03:52:32.264Z,29.23
2018-11-10T03:55:00.183Z,28.30
2018-11-10T03:57:28.107Z,31.80
2018-11-10T03:59:56.028Z,29.77
2018-11-10T04:02:23.939Z,28.37
2018-11-10T04:04:51.857Z,30.03
2018-11-10T04:07:19.829Z,28.07
2018-11-10T04:09:47.810Z,28.87
2018-11-10T04:12:16.652Z,28.80
2018-11-10T04:14:44.656Z,28.13
2018-11-10T04:17:12.624Z,28.60
2018-11-10T04:19:40.663Z,28.37
2018-11-10T04:22:08.663Z,30.50
2018-11-10T04:24:36.704Z,28.27
2018-11-10T04:27:04.715Z,28.37
2018-11-10T04:29:32.716Z,28.63
2018-11-10T04:32:00.644Z,28.70
2018-11-10T04:34:28.688Z,29.13
2018-11-10T04:36:56.592Z,27.80
2018-11-10T04:39:24.552Z,28.13
2018-11-10T04:41:52.469Z,28.30
2018-11-10T04:44:20.504Z,29.13
2018-11-10T04:46:48.446Z,27.60
2018-11-10T04:49:16.368Z,25.20
2018-11-10T04:51:44.292Z,24.80
2018-11-10T04:54:12.252Z,25.90
2018-11-10T04:56:40.177Z,27.47
2018-11-10T04:59:08.177Z,26.27
2018-11-10T05:01:36.195Z,26.80
2018-11-10T05:04:04.053Z,25.77
2018-11-10T05:06:32.004Z,28.30
2018-11-10T05:08:59.987Z,26.10
2018-11-10T05:11:27.928Z,25.10
2018-11-10T05:13:55.893Z,24.77
2018-11-10T05:16:23.823Z,25.60
2018-11-10T05:18:51.831Z,23.23
2018-11-10T05:21:19.834Z,23.10
2018-11-10T05:23:47.751Z,22.07
2018-11-10T05:26:15.772Z,23.77
2018-11-10T05:28:44.633Z,23.93
2018-11-10T05:31:12.653Z,24.53
2018-11-10T05:33:40.569Z,21.60
2018-11-10T05:36:08.471Z,22.80
2018-11-10T05:38:36.437Z,22.77
2018-11-10T05:41:04.529Z,24.07
2018-11-10T05:43:32.450Z,22.27
2018-11-10T05:46:00.371Z,22.30
2018-11-10T05:48:28.344Z,21.93
2018-11-10T05:50:56.304Z,21.03
2018-11-10T05:53:24.326Z,22.43
2018-11-10T05:55:52.235Z,22.37
2018-11-10T05:58:21.626Z,20.27
2018-11-10T06:00:53.036Z,19.83
2018-11-10T06:03:21.345Z,19.93
2018-11-10T06:05:49.237Z,19.30
2018-11-10T06:08:17.265Z,18.20
2018-11-10T06:10:45.165Z,19.43
2018-11-10T06:13:13.105Z,18.17
2018-11-10T06:15:41.157Z,18.90
2018-11-10T06:18:10.489Z,16.90
2018-11-10T06:20:41.078Z,17.93
2018-11-10T06:23:09.690Z,17.80
2018-11-10T06:25:39.421Z,16.30
2018-11-10T06:28:11.327Z,15.33
2018-11-10T06:30:40.556Z,17.30
2018-11-10T06:33:10.729Z,18.93
2018-11-10T06:35:40.392Z,17.57
2018-11-10T06:38:08.362Z,17.83
2018-11-10T06:40:36.276Z,17.60
2018-11-10T06:43:08.937Z,17.90
2018-11-10T06:45:36.877Z,20.17
2018-11-10T06:48:06.846Z,18.27
2018-11-10T06:50:34.960Z,18.50
2018-11-10T06:53:02.968Z,18.17
2018-11-10T06:55:30.906Z,18.43
2018-11-10T06:57:58.920Z,19.40
2018-11-10T07:00:26.854Z,18.73
2018-11-10T07:02:54.852Z,17.30
2018-11-10T07:05:22.781Z,17.87
2018-11-10T07:07:50.792Z,17.73
2018-11-10T07:10:18.765Z,18.20
2018-11-10T07:12:46.732Z,17.73
2018-11-10T07:15:14.700Z,17.50
2018-11-10T07:17:42.722Z,16.70
2018-11-10T07:20:10.556Z,18.70
2018-11-10T07:22:38.500Z,18.60
2018-11-10T07:25:06.746Z,18.17
2018-11-10T07:27:34.189Z,17.80
2018-11-10T07:30:02.154Z,17.33
2018-11-10T07:32:30.152Z,18.30
2018-11-10T07:34:58.093Z,18.03
2018-11-10T07:37:26.153Z,18.70
2018-11-10T07:39:54.052Z,18.67
2018-11-10T07:42:21.988Z,18.40
2018-11-10T07:44:49.925Z,18.80
2018-11-10T07:47:17.901Z,18.50
2018-11-10T07:49:45.829Z,17.67
2018-11-10T07:52:13.848Z,17.73
2018-11-10T07:54:41.791Z,19.00
2018-11-10T07:57:09.718Z,18.90
2018-11-10T07:59:37.876Z,19.60
2018-11-10T08:02:05.883Z,16.23
2018-11-10T08:04:33.892Z,16.80
2018-11-10T08:07:01.925Z,16.40
2018-11-10T08:09:29.845Z,17.23
2018-11-10T08:11:57.881Z,16.70
2018-11-10T08:14:25.757Z,16.70
2018-11-10T08:16:53.741Z,16.23
2018-11-10T08:19:21.683Z,15.93
2018-11-10T08:21:49.164Z,16.07
2018-11-10T08:24:17.144Z,16.37
2018-11-10T08:26:45.120Z,15.50
2018-11-10T08:29:12.679Z,14.27
2018-11-10T08:31:40.589Z,15.40
2018-11-10T08:34:08.556Z,14.17
2018-11-10T08:36:36.584Z,14.57
2018-11-10T08:39:06.138Z,14.60
2018-11-10T08:41:34.049Z,12.80
2018-11-10T08:44:02.001Z,13.00
2018-11-10T08:46:29.995Z,13.37
2018-11-10T08:48:57.970Z,12.77
2018-11-10T08:51:25.908Z,12.77
2018-11-10T08:53:53.864Z,12.70
2018-11-10T08:56:21.797Z,13.20
2018-11-10T08:58:49.725Z,12.37
2018-11-10T09:01:17.716Z,13.33
2018-11-10T09:03:46.823Z,12.60
2018-11-10T09:06:14.759Z,12.37
2018-11-10T09:08:42.732Z,11.83
2018-11-10T09:11:10.686Z,12.67
2018-11-10T09:13:38.624Z,12.40
2018-11-10T09:16:06.681Z,13.17
2018-11-10T09:18:34.736Z,13.80
2018-11-10T09:21:02.736Z,12.70
2018-11-10T09:23:30.620Z,13.00
2018-11-10T09:25:58.594Z,12.00
2018-11-10T09:28:26.039Z,13.83
2018-11-10T09:30:54.070Z,13.13
2018-11-10T09:33:22.026Z,12.40
2018-11-10T09:35:50.063Z,13.50
2018-11-10T09:38:18.064Z,12.90
2018-11-10T09:40:45.984Z,13.20
2018-11-10T09:43:14.009Z,12.07
2018-11-10T09:45:41.941Z,12.17
2018-11-10T09:48:09.876Z,12.77
2018-11-10T09:50:37.857Z,12.87
2018-11-10T09:53:05.793Z,12.10
2018-11-10T09:55:33.848Z,12.30
2018-11-10T09:58:01.799Z,11.00
2018-11-10T10:00:29.727Z,11.90
2018-11-10T10:02:57.656Z,10.00
2018-11-10T10:05:25.600Z,10.70
2018-11-10T10:07:53.537Z,10.97
2018-11-10T10:10:21.493Z,10.60
2018-11-10T10:12:49.524Z,10.87
2018-11-10T10:15:18.153Z,12.50
2018-11-10T10:17:46.525Z,11.60
2018-11-10T10:20:15.829Z,10.50
2018-11-10T10:22:44.612Z,10.83
2018-11-10T10:25:13.546Z,9.80
2018-11-10T10:27:41.891Z,11.87
2018-11-10T10:30:13.336Z,11.63
2018-11-10T10:32:41.552Z,10.37
2018-11-10T10:35:09.659Z,10.30
2018-11-10T10:37:37.593Z,10.10
2018-11-10T10:40:06.140Z,9.60
2018-11-10T10:42:34.090Z,9.77
2018-11-10T10:45:02.117Z,9.97
2018-11-10T10:47:30.248Z,10.00
2018-11-10T10:49:58.192Z,9.60
2018-11-10T10:52:26.164Z,10.30
2018-11-10T10:54:54.107Z,8.77
2018-11-10T10:57:22.916Z,9.80
2018-11-10T10:59:50.884Z,8.60
2018-11-10T11:02:24.387Z,9.60
2018-11-10T11:04:54.744Z,9.50
2018-11-10T11:07:23.492Z,9.10
2018-11-10T11:09:51.473Z,9.50
2018-11-10T11:12:19.410Z,10.23
2018-11-10T11:14:47.450Z,10.53
2018-11-10T11:17:15.388Z,9.40
2018-11-10T11:19:43.348Z,8.97
2018-11-10T11:22:11.332Z,10.10
2018-11-10T11:24:39.282Z,8.57
2018-11-10T11:27:07.228Z,8.50
2018-11-10T11:29:35.243Z,8.53
2018-11-10T11:32:02.760Z,10.77
2018-11-10T11:34:30.664Z,8.70
2018-11-10T11:36:58.624Z,9.07
2018-11-10T11:39:26.664Z,9.10
2018-11-10T11:41:54.621Z,8.67
2018-11-10T11:44:22.604Z,8.80
2018-11-10T11:46:50.602Z,9.80
2018-11-10T11:49:18.637Z,9.20
2018-11-10T11:51:46.648Z,10.20
2018-11-10T11:54:14.751Z,9.00
2018-11-10T11:56:42.691Z,9.30
2018-11-10T11:59:10.685Z,8.80
2018-11-10T12:01:38.661Z,9.27
2018-11-10T12:04:06.670Z,8.43
2018-11-10T12:06:34.701Z,8.53
2018-11-10T12:09:02.671Z,9.23
2018-11-10T12:11:30.682Z,8.70
2018-11-10T12:13:58.706Z,10.07
2018-11-10T12:16:27.711Z,9.10
2018-11-10T12:18:54.645Z,8.57
2018-11-10T12:21:22.663Z,8.93
2018-11-10T12:23:50.679Z,9.63
2018-11-10T12:26:18.604Z,9.23
2018-11-10T12:28:46.608Z,9.93
2018-11-10T12:31:14.564Z,9.43
2018-11-10T12:33:42.769Z,8.90
2018-11-10T12:36:10.737Z,9.47
2018-11-10T12:38:38.804Z,9.43
2018-11-10T12:41:06.728Z,9.20
2018-11-10T12:43:34.698Z,9.23
2018-11-10T12:46:02.713Z,8.93
2018-11-10T12:48:30.696Z,8.10
2018-11-10T12:50:58.624Z,8.93
2018-11-10T12:53:26.573Z,8.03
2018-11-10T12:55:54.580Z,9.90
2018-11-10T12:58:22.502Z,8.60
2018-11-10T13:00:50.503Z,9.77
2018-11-10T13:03:18.478Z,10.10
2018-11-10T13:05:46.456Z,9.93
2018-11-10T13:08:15.262Z,9.33
2018-11-10T13:10:43.214Z,8.60
2018-11-10T13:13:11.251Z,9.47
2018-11-10T13:15:39.256Z,9.77
2018-11-10T13:18:07.240Z,9.73
2018-11-10T13:20:35.189Z,11.00
2018-11-10T13:23:03.177Z,9.57
2018-11-10T13:25:31.135Z,10.80
2018-11-10T13:27:59.048Z,9.90
2018-11-10T13:30:27.033Z,11.20
2018-11-10T13:32:54.959Z,10.97
2018-11-10T13:35:22.886Z,11.60
2018-11-10T13:37:50.925Z,19.70
2018-11-10T13:40:18.798Z,14.37
2018-11-10T13:42:46.715Z,10.73
2018-11-10T13:45:14.820Z,10.30
2018-11-10T13:47:43.462Z,11.10
2018-11-10T13:50:11.922Z,12.23
2018-11-10T13:52:41.078Z,15.07
2018-11-10T13:55:08.619Z,12.00
2018-11-10T13:57:36.539Z,21.10
2018-11-10T14:00:05.606Z,22.83
2018-11-10T14:02:33.516Z,19.70
2018-11-10T14:05:01.453Z,11.03
2018-11-10T14:07:29.376Z,20.97
2018-11-10T14:09:58.163Z,9.13
2018-11-10T14:12:26.137Z,9.50
2018-11-10T14:14:54.104Z,10.40
2018-11-10T14:17:22.146Z,9.87
2018-11-10T14:19:50.051Z,9.53
2018-11-10T14:22:17.990Z,9.40
2018-11-10T14:24:45.992Z,9.63
2018-11-10T14:27:13.913Z,9.13
2018-11-10T14:29:42.832Z,8.80
2018-11-10T14:32:10.828Z,8.00
2018-11-10T14:34:39.496Z,7.83
2018-11-10T14:37:07.473Z,8.03
2018-11-10T14:39:35.467Z,7.97
2018-11-10T14:42:03.381Z,8.47
2018-11-10T14:44:31.376Z,7.80
2018-11-10T14:46:59.348Z,9.40
2018-11-10T14:49:27.284Z,8.37
2018-11-10T14:51:55.239Z,7.33
2018-11-10T14:54:23.260Z,7.80
2018-11-10T14:56:51.185Z,7.90
2018-11-10T14:59:19.170Z,9.43
2018-11-10T15:01:47.236Z,8.53
2018-11-10T15:04:15.157Z,8.93
2018-11-10T15:06:43.068Z,9.40
2018-11-10T15:09:11.028Z,17.07
2018-11-10T15:11:39.933Z,15.90
2018-11-10T15:14:08.101Z,12.73
2018-11-10T15:19:10.693Z,8.93
2018-11-10T15:21:38.607Z,8.67
2018-11-10T15:24:06.842Z,8.53
2018-11-10T15:26:34.853Z,7.67
2018-11-10T15:29:02.824Z,7.80
2018-11-10T15:31:31.718Z,7.60
2018-11-10T15:33:59.750Z,8.60
2018-11-10T15:36:27.728Z,8.80
2018-11-10T15:38:55.794Z,9.50
2018-11-10T15:41:23.794Z,8.23
2018-11-10T15:43:51.744Z,8.87
2018-11-10T15:46:19.700Z,8.63
2018-11-10T15:48:47.711Z,9.43
2018-11-10T15:51:15.743Z,8.33
2018-11-10T15:53:43.817Z,8.83
2018-11-10T15:56:11.886Z,10.07
2018-11-10T15:58:39.786Z,10.00
2018-11-10T16:01:07.825Z,15.37
2018-11-10T16:03:35.896Z,16.57
2018-11-10T16:06:03.828Z,14.70
2018-11-10T16:08:31.759Z,12.77
2018-11-10T16:10:59.752Z,11.80
2018-11-10T16:13:28.290Z,12.03
2018-11-10T16:15:56.292Z,13.70
2018-11-10T16:18:24.240Z,13.90
2018-11-10T16:20:52.304Z,13.73
2018-11-10T16:23:20.208Z,15.40
2018-11-10T16:25:48.181Z,17.10
2018-11-10T16:28:16.127Z,14.20
2018-11-10T16:30:44.062Z,11.43
2018-11-10T16:33:12.593Z,10.93
2018-11-10T16:35:40.557Z,11.90
2018-11-10T16:38:08.527Z,10.47
2018-11-10T16:40:36.472Z,10.87
2018-11-10T16:43:04.741Z,11.97
2018-11-10T16:45:32.649Z,11.90
2018-11-10T16:48:00.593Z,12.90
2018-11-10T16:50:28.584Z,14.20
2018-11-10T16:52:56.561Z,13.60
2018-11-10T16:55:24.525Z,13.93
2018-11-10T16:57:52.457Z,13.20
2018-11-10T17:00:20.492Z,13.37
2018-11-10T17:02:48.455Z,13.73
2018-11-10T17:05:16.379Z,12.33
2018-11-10T17:07:44.314Z,12.33
2018-11-10T17:10:13.601Z,11.43
2018-11-10T17:12:41.920Z,11.00
2018-11-10T17:15:11.069Z,11.40
2018-11-10T17:17:39.257Z,10.00
2018-11-10T17:20:08.161Z,11.80
2018-11-10T17:22:36.396Z,10.50
2018-11-10T17:25:04.606Z,10.00
2018-11-10T17:27:32.529Z,11.20
2018-11-10T17:30:00.489Z,10.40
2018-11-10T17:32:28.487Z,11.33
2018-11-10T17:34:56.754Z,10.97
2018-11-10T17:37:24.799Z,11.77
2018-11-10T17:39:52.853Z,14.20
2018-11-10T17:42:20.897Z,13.33
2018-11-10T17:44:48.783Z,12.67
2018-11-10T17:47:16.724Z,12.70
2018-11-10T17:49:44.652Z,14.77
2018-11-10T17:52:12.746Z,13.57
2018-11-10T17:54:40.590Z,16.17
2018-11-10T17:57:08.444Z,16.50
2018-11-10T17:59:36.409Z,17.63
2018-11-10T18:02:04.378Z,15.53
2018-11-10T18:04:32.263Z,15.83
2018-11-10T18:07:00.189Z,16.90
2018-11-10T18:09:28.182Z,14.50
2018-11-10T18:11:56.089Z,15.57
2018-11-10T18:14:24.012Z,15.43
2018-11-10T18:16:51.990Z,14.90
2018-11-10T18:19:19.905Z,16.50
2018-11-10T18:21:47.930Z,15.20
2018-11-10T18:24:15.837Z,16.63
2018-11-10T18:26:43.817Z,15.93
2018-11-10T18:29:12.284Z,15.90
2018-11-10T18:31:40.255Z,16.27
2018-11-10T18:34:08.196Z,15.60
2018-11-10T18:36:36.257Z,16.37
2018-11-10T18:39:05.569Z,16.40
2018-11-10T18:41:33.524Z,18.13
2018-11-10T18:44:01.489Z,25.13
2018-11-10T18:46:29.525Z,24.57
2018-11-10T18:48:57.501Z,19.47
2018-11-10T18:51:25.558Z,22.47
2018-11-10T18:53:53.513Z,19.30
2018-11-10T18:56:21.484Z,22.33
2018-11-10T18:58:49.450Z,23.83
2018-11-10T19:01:18.411Z,18.23
2018-11-10T19:03:46.421Z,18.60
2018-11-10T19:06:14.505Z,19.70
2018-11-10T19:08:42.461Z,18.27
2018-11-10T19:11:10.406Z,18.53
2018-11-10T19:13:38.530Z,17.77
2018-11-10T19:16:06.478Z,18.00
2018-11-10T19:18:34.432Z,18.20
2018-11-10T19:21:02.566Z,18.70
2018-11-10T19:23:30.396Z,18.67
2018-11-10T19:25:58.416Z,16.40
2018-11-10T19:28:26.512Z,16.93
2018-11-10T19:30:54.436Z,19.23
2018-11-10T19:33:22.634Z,18.70
2018-11-10T19:35:50.640Z,17.83
2018-11-10T19:38:18.633Z,17.50
2018-11-10T19:40:46.577Z,17.73
2018-11-10T19:43:14.507Z,17.17
2018-11-10T19:45:42.482Z,18.23
2018-11-10T19:48:10.456Z,26.50
2018-11-10T19:50:38.387Z,20.37
2018-11-10T19:53:06.290Z,20.77
2018-11-10T19:55:34.216Z,21.20
2018-11-10T19:58:02.172Z,23.87
2018-11-10T20:00:30.150Z,21.57
2018-11-10T20:02:58.825Z,22.33
2018-11-10T20:05:26.789Z,23.00
2018-11-10T20:07:54.715Z,26.60
2018-11-10T20:10:22.646Z,22.63
2018-11-10T20:12:50.655Z,23.73
2018-11-10T20:15:18.688Z,17.50
2018-11-10T20:17:46.760Z,18.73
2018-11-10T20:20:16.308Z,16.37
2018-11-10T20:22:44.587Z,16.90
2018-11-10T20:25:13.837Z,17.70
2018-11-10T20:27:41.775Z,23.77
2018-11-10T20:30:10.809Z,20.77
2018-11-10T20:32:38.886Z,25.37
2018-11-10T20:35:07.819Z,19.30
2018-11-10T20:37:35.740Z,19.93
2018-11-10T20:40:04.260Z,17.30
2018-11-10T20:42:32.165Z,17.00
2018-11-10T20:45:00.190Z,18.63
2018-11-10T20:47:28.128Z,20.13
2018-11-10T20:49:56.122Z,18.30
2018-11-10T20:52:24.049Z,18.40
2018-11-10T20:54:52.010Z,16.07
2018-11-10T20:57:19.999Z,17.03
2018-11-10T20:59:47.927Z,16.70
2018-11-10T21:02:15.989Z,15.90
2018-11-10T21:04:45.228Z,14.80
2018-11-10T21:07:13.196Z,15.47
2018-11-10T21:09:41.229Z,15.63
2018-11-10T21:12:09.148Z,14.10
2018-11-10T21:14:37.112Z,14.07
2018-11-10T21:17:05.135Z,16.40
2018-11-10T21:19:33.107Z,15.07
2018-11-10T21:22:01.020Z,15.70
2018-11-10T21:24:28.974Z,16.07
2018-11-10T21:26:57.011Z,16.30
2018-11-10T21:29:25.002Z,16.80
2018-11-10T21:31:52.884Z,20.30
2018-11-10T21:34:20.872Z,19.27
2018-11-10T21:36:49.710Z,16.47
2018-11-10T21:39:17.731Z,16.23
2018-11-10T21:41:45.679Z,15.50
2018-11-10T21:44:13.609Z,16.30
2018-11-10T21:46:41.552Z,14.53
2018-11-10T21:49:09.575Z,15.30
2018-11-10T21:51:37.432Z,15.23
2018-11-10T21:54:05.433Z,13.57
2018-11-10T21:56:33.350Z,13.23
2018-11-10T21:59:01.284Z,15.50
2018-11-10T22:01:29.220Z,13.53
2018-11-10T22:03:57.220Z,15.23
2018-11-10T22:06:26.500Z,14.43
2018-11-10T22:08:54.502Z,14.70
2018-11-10T22:11:22.387Z,14.57
2018-11-10T22:13:50.379Z,14.10
2018-11-10T22:16:18.302Z,13.07
2018-11-10T22:18:46.242Z,12.30
2018-11-10T22:21:14.186Z,14.60
2018-11-10T22:23:42.159Z,14.10
2018-11-10T22:26:10.229Z,13.47
2018-11-10T22:28:38.130Z,13.13
2018-11-10T22:31:06.262Z,13.70
2018-11-10T22:33:34.101Z,14.43
2018-11-10T22:36:02.148Z,13.60
2018-11-10T22:38:30.177Z,14.30
2018-11-10T22:40:58.129Z,14.50
2018-11-10T22:43:26.042Z,14.70
2018-11-10T22:45:53.966Z,12.77
2018-11-10T22:48:21.884Z,13.07
2018-11-10T22:50:49.828Z,12.97
2018-11-10T22:53:17.825Z,14.13
2018-11-10T22:55:45.765Z,14.10
2018-11-10T22:58:13.707Z,13.40
2018-11-10T23:00:47.332Z,15.43
2018-11-10T23:03:15.280Z,13.93
2018-11-10T23:05:43.308Z,13.57
2018-11-10T23:08:12.265Z,13.43
2018-11-10T23:10:40.169Z,14.07
2018-11-10T23:13:08.084Z,15.70
2018-11-10T23:15:36.016Z,14.53
2018-11-10T23:18:03.972Z,13.50
2018-11-10T23:20:31.897Z,15.57
2018-11-10T23:22:59.982Z,14.00
2018-11-10T23:25:27.833Z,14.40
2018-11-10T23:27:55.864Z,14.83
2018-11-10T23:30:24.167Z,15.50
2018-11-10T23:32:52.163Z,14.20
2018-11-10T23:35:20.173Z,14.30
2018-11-10T23:37:48.206Z,17.27
2018-11-10T23:40:16.980Z,16.77
2018-11-10T23:42:44.916Z,15.40
2018-11-10T23:51:14.128Z,15.70
2018-11-10T23:53:42.064Z,15.90
2018-11-10T23:56:10.085Z,16.40
2018-11-10T23:58:38.033Z,15.67
